Qijiaojing, China
Current Conditions -  °F | °C
As of 12:00 AM on Friday 30 Jan 2015 (Local Time) from ZWWW Reporting Station
Haze Haze  
Wind Chill: -2°   Ceiling: Unl
Heat Index: -2°   Visibility: 1.2mi
Dew Point: -6°   Wind: 0mph
Humidity: 85%   Direction: NA
Pressure: 30.45"   Gusts: NA
Location:  43.48°N, 91.63°E
Report Text: ZWWW 291600Z 00000MPS 2000 BR NSC M19/M21 Q1031 NOSIG
Loading
Personal Weather Stations






























Interactive Weather Map New forecast layout! Learn more

10-Day Weather Forecast

Advertisements
Track Severe Weather on mobile